sensor_id;sensor_type;location;lat;lon;timestamp;temperature;humidity
23395;DHT22;11870;53.084;18.206;2023-02-01T00:17:54;3.70;99.90
23395;DHT22;11870;53.084;18.206;2023-02-01T00:30:06;4.00;99.90
23395;DHT22;11870;53.084;18.206;2023-02-01T00:54:33;4.10;99.90
23395;DHT22;11870;53.084;18.206;2023-02-01T01:11:37;4.00;99.90
23395;DHT22;11870;53.084;18.206;2023-02-01T01:14:05;4.00;99.90
23395;DHT22;11870;53.084;18.206;2023-02-01T01:16:31;4.00;99.90
23395;DHT22;11870;53.084;18.206;2023-02-01T01:21:25;4.00;99.90
23395;DHT22;11870;53.084;18.206;2023-02-01T01:26:20;3.90;99.90
23395;DHT22;11870;53.084;18.206;2023-02-01T01:31:15;3.90;99.90
23395;DHT22;11870;53.084;18.206;2023-02-01T01:38:38;4.00;99.90
23395;DHT22;11870;53.084;18.206;2023-02-01T01:46:19;3.90;99.90
23395;DHT22;11870;53.084;18.206;2023-02-01T01:51:13;3.90;99.90
23395;DHT22;11870;53.084;18.206;2023-02-01T01:53:45;3.90;99.90
23395;DHT22;11870;53.084;18.206;2023-02-01T01:58:40;3.80;99.90
23395;DHT22;11870;53.084;18.206;2023-02-01T02:03:41;3.90;99.90
23395;DHT22;11870;53.084;18.206;2023-02-01T02:06:30;3.90;99.90
23395;DHT22;11870;53.084;18.206;2023-02-01T02:13:52;3.90;99.90
23395;DHT22;11870;53.084;18.206;2023-02-01T02:22:46;4.00;99.90
23395;DHT22;11870;53.084;18.206;2023-02-01T02:28:13;4.00;99.90
23395;DHT22;11870;53.084;18.206;2023-02-01T02:34:14;4.00;99.90
23395;DHT22;11870;53.084;18.206;2023-02-01T02:39:35;4.00;99.90
23395;DHT22;11870;53.084;18.206;2023-02-01T02:45:11;3.90;99.90
23395;DHT22;11870;53.084;18.206;2023-02-01T02:56:32;4.10;99.90
23395;DHT22;11870;53.084;18.206;2023-02-01T02:59:21;4.10;99.90
23395;DHT22;11870;53.084;18.206;2023-02-01T03:02:06;4.20;99.90
23395;DHT22;11870;53.084;18.206;2023-02-01T03:04:54;4.10;99.90
23395;DHT22;11870;53.084;18.206;2023-02-01T03:10:38;4.60;99.90
23395;DHT22;11870;53.084;18.206;2023-02-01T03:13:13;4.10;99.90
23395;DHT22;11870;53.084;18.206;2023-02-01T03:18:25;4.10;99.90
23395;DHT22;11870;53.084;18.206;2023-02-01T03:20:53;4.20;99.90
23395;DHT22;11870;53.084;18.206;2023-02-01T03:23:23;4.20;99.90
23395;DHT22;11870;53.084;18.206;2023-02-01T03:25:53;4.30;99.90
23395;DHT22;11870;53.084;18.206;2023-02-01T03:28:23;4.30;99.90
23395;DHT22;11870;53.084;18.206;2023-02-01T03:33:19;4.40;99.90
23395;DHT22;11870;53.084;18.206;2023-02-01T03:36:09;4.40;99.90
23395;DHT22;11870;53.084;18.206;2023-02-01T03:47:08;4.30;99.90
23395;DHT22;11870;53.084;18.206;2023-02-01T03:49:39;4.40;99.90
23395;DHT22;11870;53.084;18.206;2023-02-01T03:52:09;4.50;99.90
23395;DHT22;11870;53.084;18.206;2023-02-01T03:57:08;4.50;99.90
23395;DHT22;11870;53.084;18.206;2023-02-01T03:59:41;4.50;99.90
23395;DHT22;11870;53.084;18.206;2023-02-01T04:24:06;4.40;99.90
23395;DHT22;11870;53.084;18.206;2023-02-01T04:33:52;4.00;99.90
23395;DHT22;11870;53.084;18.206;2023-02-01T04:38:52;4.00;99.90
23395;DHT22;11870;53.084;18.206;2023-02-01T04:43:49;4.10;99.90
23395;DHT22;11870;53.084;18.206;2023-02-01T05:05:48;4.20;99.90
23395;DHT22;11870;53.084;18.206;2023-02-01T05:13:08;4.30;99.90
23395;DHT22;11870;53.084;18.206;2023-02-01T05:30:32;4.20;99.90
23395;DHT22;11870;53.084;18.206;2023-02-01T05:50:06;4.40;99.90
23395;DHT22;11870;53.084;18.206;2023-02-01T06:12:04;4.20;99.90
23395;DHT22;11870;53.084;18.206;2023-02-01T06:29:12;4.30;99.90
23395;DHT22;11870;53.084;18.206;2023-02-01T06:51:23;4.40;99.90
23395;DHT22;11870;53.084;18.206;2023-02-01T07:01:10;4.60;99.90
23395;DHT22;11870;53.084;18.206;2023-02-01T07:06:03;4.70;99.90
23395;DHT22;11870;53.084;18.206;2023-02-01T07:08:31;4.70;99.90
23395;DHT22;11870;53.084;18.206;2023-02-01T07:11:06;4.70;99.90
23395;DHT22;11870;53.084;18.206;2023-02-01T07:13:33;4.60;99.90
23395;DHT22;11870;53.084;18.206;2023-02-01T07:16:01;4.70;99.90
23395;DHT22;11870;53.084;18.206;2023-02-01T07:28:14;4.80;99.90
23395;DHT22;11870;53.084;18.206;2023-02-01T07:35:34;4.80;99.90
23395;DHT22;11870;53.084;18.206;2023-02-01T07:42:55;5.80;99.90
23395;DHT22;11870;53.084;18.206;2023-02-01T07:45:22;5.90;99.90
23395;DHT22;11870;53.084;18.206;2023-02-01T07:50:15;5.90;99.90
23395;DHT22;11870;53.084;18.206;2023-02-01T07:55:08;7.40;99.90
23395;DHT22;11870;53.084;18.206;2023-02-01T08:10:05;10.30;99.90
23395;DHT22;11870;53.084;18.206;2023-02-01T08:47:05;12.50;94.80
23395;DHT22;11870;53.084;18.206;2023-02-01T08:51:58;12.60;89.10
23395;DHT22;11870;53.084;18.206;2023-02-01T08:56:50;12.40;83.10
23395;DHT22;11870;53.084;18.206;2023-02-01T08:59:16;11.70;91.00
23395;DHT22;11870;53.084;18.206;2023-02-01T09:01:43;10.50;95.30
23395;DHT22;11870;53.084;18.206;2023-02-01T09:04:09;10.50;99.90
23395;DHT22;11870;53.084;18.206;2023-02-01T09:09:01;8.90;99.90
23395;DHT22;11870;53.084;18.206;2023-02-01T09:18:47;9.00;99.90
23395;DHT22;11870;53.084;18.206;2023-02-01T09:23:39;9.50;99.90
23395;DHT22;11870;53.084;18.206;2023-02-01T09:31:00;9.10;99.90
23395;DHT22;11870;53.084;18.206;2023-02-01T09:33:27;9.00;99.90
23395;DHT22;11870;53.084;18.206;2023-02-01T09:36:02;9.10;99.90
23395;DHT22;11870;53.084;18.206;2023-02-01T09:38:30;9.10;99.90
23395;DHT22;11870;53.084;18.206;2023-02-01T09:48:26;8.70;99.90
23395;DHT22;11870;53.084;18.206;2023-02-01T09:50:58;8.60;99.90
23395;DHT22;11870;53.084;18.206;2023-02-01T09:53:33;8.60;99.90
23395;DHT22;11870;53.084;18.206;2023-02-01T09:56:21;8.60;99.90
23395;DHT22;11870;53.084;18.206;2023-02-01T09:58:57;8.70;99.90
23395;DHT22;11870;53.084;18.206;2023-02-01T10:01:26;9.10;99.90
23395;DHT22;11870;53.084;18.206;2023-02-01T10:04:01;9.40;99.90
23395;DHT22;11870;53.084;18.206;2023-02-01T10:09:14;9.40;99.90
23395;DHT22;11870;53.084;18.206;2023-02-01T10:23:32;8.60;99.90
23395;DHT22;11870;53.084;18.206;2023-02-01T10:26:22;8.90;99.90
23395;DHT22;11870;53.084;18.206;2023-02-01T10:29:01;9.10;99.90
23395;DHT22;11870;53.084;18.206;2023-02-01T10:31:34;9.50;99.90
23395;DHT22;11870;53.084;18.206;2023-02-01T10:37:01;9.00;99.90
23395;DHT22;11870;53.084;18.206;2023-02-01T10:44:28;8.60;99.90
23395;DHT22;11870;53.084;18.206;2023-02-01T10:49:38;8.20;99.90
23395;DHT22;11870;53.084;18.206;2023-02-01T10:52:51;8.50;99.90
23395;DHT22;11870;53.084;18.206;2023-02-01T10:55:41;8.70;99.90
23395;DHT22;11870;53.084;18.206;2023-02-01T11:03:39;8.40;99.90
23395;DHT22;11870;53.084;18.206;2023-02-01T11:09:01;8.00;99.90
23395;DHT22;11870;53.084;18.206;2023-02-01T11:16:52;8.00;99.90
23395;DHT22;11870;53.084;18.206;2023-02-01T11:21:53;8.20;99.90
23395;DHT22;11870;53.084;18.206;2023-02-01T11:26:56;8.00;99.90
23395;DHT22;11870;53.084;18.206;2023-02-01T11:29:23;7.80;99.90
23395;DHT22;11870;53.084;18.206;2023-02-01T11:31:59;7.70;99.90
23395;DHT22;11870;53.084;18.206;2023-02-01T11:34:32;7.50;99.90
23395;DHT22;11870;53.084;18.206;2023-02-01T11:37:02;7.50;99.90
23395;DHT22;11870;53.084;18.206;2023-02-01T11:39:33;7.50;99.90
23395;DHT22;11870;53.084;18.206;2023-02-01T11:42:14;7.50;99.90
23395;DHT22;11870;53.084;18.206;2023-02-01T11:44:43;7.40;99.90
23395;DHT22;11870;53.084;18.206;2023-02-01T11:49:48;7.50;99.90
23395;DHT22;11870;53.084;18.206;2023-02-01T11:57:51;8.90;99.90
23395;DHT22;11870;53.084;18.206;2023-02-01T12:00:36;8.60;99.90
23395;DHT22;11870;53.084;18.206;2023-02-01T12:05:48;8.70;99.90
23395;DHT22;11870;53.084;18.206;2023-02-01T12:17:36;8.50;99.90
23395;DHT22;11870;53.084;18.206;2023-02-01T12:31:30;8.60;99.90
23395;DHT22;11870;53.084;18.206;2023-02-01T12:42:03;7.70;99.90
23395;DHT22;11870;53.084;18.206;2023-02-01T12:44:54;7.50;99.90
23395;DHT22;11870;53.084;18.206;2023-02-01T12:50:29;7.50;99.90
23395;DHT22;11870;53.084;18.206;2023-02-01T12:53:09;7.30;99.90
23395;DHT22;11870;53.084;18.206;2023-02-01T12:55:43;7.20;99.90
23395;DHT22;11870;53.084;18.206;2023-02-01T12:58:26;7.10;99.90
23395;DHT22;11870;53.084;18.206;2023-02-01T13:01:06;7.30;99.90
23395;DHT22;11870;53.084;18.206;2023-02-01T13:03:54;7.20;99.90
23395;DHT22;11870;53.084;18.206;2023-02-01T13:06:37;7.30;99.90
23395;DHT22;11870;53.084;18.206;2023-02-01T13:12:34;6.90;99.90
23395;DHT22;11870;53.084;18.206;2023-02-01T13:15:02;6.90;99.90
23395;DHT22;11870;53.084;18.206;2023-02-01T13:17:32;6.90;99.90
23395;DHT22;11870;53.084;18.206;2023-02-01T13:20:25;6.70;99.90
23395;DHT22;11870;53.084;18.206;2023-02-01T13:25:48;7.00;99.90
23395;DHT22;11870;53.084;18.206;2023-02-01T13:42:19;6.50;99.90
23395;DHT22;11870;53.084;18.206;2023-02-01T13:45:00;6.80;99.90
23395;DHT22;11870;53.084;18.206;2023-02-01T13:49:57;6.50;99.90
23395;DHT22;11870;53.084;18.206;2023-02-01T13:55:02;6.60;99.90
23395;DHT22;11870;53.084;18.206;2023-02-01T13:57:38;6.70;99.90
23395;DHT22;11870;53.084;18.206;2023-02-01T14:00:29;6.60;99.90
23395;DHT22;11870;53.084;18.206;2023-02-01T14:08:22;6.50;99.90
23395;DHT22;11870;53.084;18.206;2023-02-01T14:10:55;6.50;99.90
23395;DHT22;11870;53.084;18.206;2023-02-01T14:26:53;6.30;99.90
23395;DHT22;11870;53.084;18.206;2023-02-01T14:29:27;6.40;99.90
23395;DHT22;11870;53.084;18.206;2023-02-01T14:37:05;6.10;99.90
23395;DHT22;11870;53.084;18.206;2023-02-01T14:50:36;6.10;99.90
23395;DHT22;11870;53.084;18.206;2023-02-01T14:58:55;6.00;99.90
23395;DHT22;11870;53.084;18.206;2023-02-01T15:01:25;6.00;99.90
23395;DHT22;11870;53.084;18.206;2023-02-01T15:04:09;6.20;99.90
23395;DHT22;11870;53.084;18.206;2023-02-01T15:06:41;6.00;99.90
23395;DHT22;11870;53.084;18.206;2023-02-01T15:09:37;6.00;99.90
23395;DHT22;11870;53.084;18.206;2023-02-01T15:12:19;6.00;99.90
23395;DHT22;11870;53.084;18.206;2023-02-01T15:15:18;6.10;99.90
23395;DHT22;11870;53.084;18.206;2023-02-01T15:17:56;5.90;99.90
23395;DHT22;11870;53.084;18.206;2023-02-01T15:20:28;5.70;99.90
23395;DHT22;11870;53.084;18.206;2023-02-01T15:23:04;5.60;99.90
23395;DHT22;11870;53.084;18.206;2023-02-01T15:25:36;5.60;99.90
23395;DHT22;11870;53.084;18.206;2023-02-01T15:30:34;5.60;99.90
23395;DHT22;11870;53.084;18.206;2023-02-01T15:33:27;5.40;99.90
23395;DHT22;11870;53.084;18.206;2023-02-01T15:36:06;5.50;99.90
23395;DHT22;11870;53.084;18.206;2023-02-01T15:38:42;5.50;99.90
23395;DHT22;11870;53.084;18.206;2023-02-01T15:41:19;5.40;99.90
23395;DHT22;11870;53.084;18.206;2023-02-01T15:44:04;5.60;99.90
23395;DHT22;11870;53.084;18.206;2023-02-01T15:46:43;5.50;99.90
23395;DHT22;11870;53.084;18.206;2023-02-01T15:49:35;5.20;99.90
23395;DHT22;11870;53.084;18.206;2023-02-01T15:52:03;5.20;99.90
23395;DHT22;11870;53.084;18.206;2023-02-01T15:54:37;5.00;99.90
23395;DHT22;11870;53.084;18.206;2023-02-01T15:59:41;4.70;99.90
23395;DHT22;11870;53.084;18.206;2023-02-01T16:02:36;4.50;99.90
23395;DHT22;11870;53.084;18.206;2023-02-01T16:05:31;4.40;99.90
23395;DHT22;11870;53.084;18.206;2023-02-01T16:08:00;4.50;99.90
23395;DHT22;11870;53.084;18.206;2023-02-01T16:10:31;4.30;99.90
23395;DHT22;11870;53.084;18.206;2023-02-01T16:15:27;4.30;99.90
23395;DHT22;11870;53.084;18.206;2023-02-01T16:30:09;4.80;99.90
23395;DHT22;11870;53.084;18.206;2023-02-01T16:35:21;4.60;99.90
23395;DHT22;11870;53.084;18.206;2023-02-01T16:40:16;4.50;99.90
23395;DHT22;11870;53.084;18.206;2023-02-01T16:47:37;4.30;99.90
23395;DHT22;11870;53.084;18.206;2023-02-01T16:50:04;4.30;99.90
23395;DHT22;11870;53.084;18.206;2023-02-01T16:52:47;4.50;99.90
23395;DHT22;11870;53.084;18.206;2023-02-01T16:55:19;4.60;99.90
23395;DHT22;11870;53.084;18.206;2023-02-01T17:00:14;4.30;99.90
23395;DHT22;11870;53.084;18.206;2023-02-01T17:05:09;4.30;99.90
23395;DHT22;11870;53.084;18.206;2023-02-01T17:14:59;4.30;99.90
23395;DHT22;11870;53.084;18.206;2023-02-01T17:17:33;4.00;99.90
23395;DHT22;11870;53.084;18.206;2023-02-01T17:32:17;3.90;99.90
23395;DHT22;11870;53.084;18.206;2023-02-01T17:37:32;3.70;99.90
23395;DHT22;11870;53.084;18.206;2023-02-01T17:42:28;3.60;99.90
23395;DHT22;11870;53.084;18.206;2023-02-01T17:45:01;3.40;99.90
23395;DHT22;11870;53.084;18.206;2023-02-01T17:52:23;3.30;99.90
23395;DHT22;11870;53.084;18.206;2023-02-01T18:02:20;3.50;99.90
23395;DHT22;11870;53.084;18.206;2023-02-01T18:07:14;3.70;99.90
23395;DHT22;11870;53.084;18.206;2023-02-01T18:12:19;3.40;99.90
23395;DHT22;11870;53.084;18.206;2023-02-01T18:36:50;3.30;99.90
23395;DHT22;11870;53.084;18.206;2023-02-01T18:39:17;3.20;99.90
23395;DHT22;11870;53.084;18.206;2023-02-01T18:41:44;3.10;99.90
23395;DHT22;11870;53.084;18.206;2023-02-01T18:44:13;3.10;99.90
23395;DHT22;11870;53.084;18.206;2023-02-01T19:01:20;3.30;99.90
23395;DHT22;11870;53.084;18.206;2023-02-01T19:03:50;3.40;99.90
23395;DHT22;11870;53.084;18.206;2023-02-01T19:08:46;3.40;99.90
23395;DHT22;11870;53.084;18.206;2023-02-01T19:16:07;3.80;99.90
23395;DHT22;11870;53.084;18.206;2023-02-01T19:21:06;3.80;99.90
23395;DHT22;11870;53.084;18.206;2023-02-01T19:31:03;4.00;99.90
23395;DHT22;11870;53.084;18.206;2023-02-01T19:36:01;3.70;99.90
23395;DHT22;11870;53.084;18.206;2023-02-01T20:00:31;4.20;99.90
23395;DHT22;11870;53.084;18.206;2023-02-01T20:20:06;4.00;99.90
23395;DHT22;11870;53.084;18.206;2023-02-01T20:37:19;4.20;99.90
23395;DHT22;11870;53.084;18.206;2023-02-01T21:04:20;4.20;99.90
23395;DHT22;11870;53.084;18.206;2023-02-01T21:23:54;4.40;99.90
23395;DHT22;11870;53.084;18.206;2023-02-01T21:26:22;4.40;99.90
23395;DHT22;11870;53.084;18.206;2023-02-01T21:28:49;4.40;99.90
23395;DHT22;11870;53.084;18.206;2023-02-01T21:31:16;4.40;99.90
23395;DHT22;11870;53.084;18.206;2023-02-01T21:36:14;4.40;99.90
23395;DHT22;11870;53.084;18.206;2023-02-01T21:38:48;4.30;99.90
23395;DHT22;11870;53.084;18.206;2023-02-01T21:41:21;4.20;99.90
23395;DHT22;11870;53.084;18.206;2023-02-01T21:51:26;4.30;99.90
23395;DHT22;11870;53.084;18.206;2023-02-01T21:53:53;4.40;99.90
23395;DHT22;11870;53.084;18.206;2023-02-01T22:06:04;4.50;99.90
23395;DHT22;11870;53.084;18.206;2023-02-01T22:08:36;4.50;99.90
23395;DHT22;11870;53.084;18.206;2023-02-01T22:15:57;4.50;99.90
23395;DHT22;11870;53.084;18.206;2023-02-01T22:30:35;4.50;99.90
23395;DHT22;11870;53.084;18.206;2023-02-01T22:50:07;4.20;99.90
23395;DHT22;11870;53.084;18.206;2023-02-01T23:29:15;4.40;99.90
23395;DHT22;11870;53.084;18.206;2023-02-01T23:34:10;4.40;99.90
23395;DHT22;11870;53.084;18.206;2023-02-01T23:56:37;4.50;99.90
23395;DHT22;11870;53.084;18.206;2023-02-01T23:59:05;4.50;99.90
